Mount Vernon, IL

2:05 AM CDT on October 24, 2014 (GMT -0500)
Mount Vernon | Change Station
CLOSE
Current Station
Airport
Location: Mount Vernon,
Elevation: 479 ft
Nearby Weather Stations

Elev 479 ft 38.32 °N, 88.86 °W | Updated 50 minutes ago

Overcast
Overcast
46 °F
Feels Like 46 °F
N
0
Wind Variable Wind from North

Today
High -- | Low -- °F
--% Chance of Precip.
Yesterday
High -- | Low -- °F
Precip. -- in
7:13 AM 6:05 PM
New Moon, 0% visible
Pressure 30.12 in
Visibility 10.0 miles
Clouds Few 3200 ft
Overcast 8000 ft
Dew Point 43 °F
Humidity 87%
Rainfall 0.00 in
Snow Depth Not available.
UV 0 out of 12
Pollen 1.30 out of 12
Air Quality Not available.
Flu Activity No Activity
METAR KMVN 240615Z AUTO 00000KT 10SM FEW032 OVC080 08/06 A3012 RMK AO1

More Conditions Fewer Conditions

Pressure 30.12 in
Visibility 10.0 miles
Clouds Few 3200 ft
Overcast 8000 ft
Dew Point 43 °F
Humidity 87%
Rainfall 0.00 in
Snow Depth Not available.
UV 0 out of 12
Pollen 1.30 out of 12
Air Quality Not available.
Flu Activity No Activity
METAR KMVN 240615Z AUTO 00000KT 10SM FEW032 OVC080 08/06 A3012 RMK AO1

More Conditions Fewer Conditions

10-Day Weather Forecast

Almanac

Astronomy

Oct. 24, 2014 Rise Set
Actual Time 7:13 AM CDT 6:05 PM CDT
Civil Twilight 6:46 AM CDT 6:32 PM CDT
Nautical Twilight 6:15 AM CDT 7:03 PM CDT
Astronomical Twilight 5:44 AM CDT 7:34 PM CDT
Moon 7:52 AM CDT 6:46 PM CDT
Length of Visible Light 11h 46m
Length of Day
10h 52m
Tomorrow will be 2m 16s shorter.
New Moon, 0% of the Moon is Illuminated
Today
New Moon
Oct 30
First Quarter
Nov 6
Full
Nov 14
Last Quarter
Nov 22
New

Today's Extremes

State Highs State Lows

Community

WunderPhotos

Upload Photos

1,764,510 photos uploaded!

WunderBlogs® & News

Nearby

Snow Depth

Station Depth Elevation
No new snow has been reported.

Earthquake Activity

City Distance Mag. Time & Date
No recent earthquake activity has been reported nearby.
Minimum magnitude displayed is 2.5.

Coastal Water Temperatures

Place Temperature
No Stations Reporting

Nearby Weather Stations